Time;durP1;ratioP1;P1;durP2;ratioP2;P2;SDS_P1;SDS_P2;PMS_P1;PMS_P2;Temp;Humidity;BMP_temperature;BMP_pressure;BME280_temperature;BME280_humidity;BME280_pressure;Samples;Min_cycle;Max_cycle;Signal;HPM_P1;HPM_P2
2022/12/17 13:06:45;;;;;;;6.13;3.50;;;;;;;;;;4993091;28;20029;-74
2022/12/17 13:09:14;;;;;;;7.68;3.58;;;;;;;;;;4992868;28;20050;-74
2022/12/17 13:11:45;;;;;;;8.07;3.53;;;;;;;;;;4993112;28;20518;-73
2022/12/17 13:14:15;;;;;;;7.15;3.58;;;;;;;;;;4993101;28;20494;-73
2022/12/17 13:16:44;;;;;;;4.82;3.25;;;;;;;;;;4992770;28;20430;-74
2022/12/17 13:19:40;;;;;;;4.82;3.53;;;;;;;;;;4976568;28;20030;-73
2022/12/17 13:22:27;;;;;;;5.15;3.80;;;;;;;;;;4980495;28;20068;-74
2022/12/17 13:24:55;;;;;;;4.13;3.28;;;;;;;;;;4992677;28;20036;-73
2022/12/17 13:27:34;;;;;;;4.55;3.80;;;;;;;;;;4992613;28;20403;-73
2022/12/17 13:30:21;;;;;;;4.10;3.30;;;;;;;;;;5008567;28;20030;-73
2022/12/17 13:32:59;;;;;;;5.22;3.90;;;;;;;;;;5014487;28;20030;-74
2022/12/17 13:35:26;;;;;;;3.58;3.00;;;;;;;;;;5014282;28;20029;-74
2022/12/17 13:37:52;;;;;;;4.15;3.47;;;;;;;;;;5013985;28;20053;-73
2022/12/17 13:40:38;;;;;;;4.63;3.60;;;;;;;;;;5014414;28;20033;-73
2022/12/17 13:43:04;;;;;;;5.95;4.40;;;;;;;;;;5014640;28;20038;-74
2022/12/17 13:45:34;;;;;;;3.65;3.10;;;;;;;;;;5014287;28;20034;-74
2022/12/17 13:48:00;;;;;;;3.75;2.80;;;;;;;;;;5013879;28;20032;-74
2022/12/17 13:50:28;;;;;;;4.43;3.17;;;;;;;;;;5014044;28;20490;-74
2022/12/17 13:52:55;;;;;;;4.10;3.05;;;;;;;;;;5013928;28;20025;-73
2022/12/17 13:55:25;;;;;;;4.05;3.10;;;;;;;;;;5014022;28;20040;-74
2022/12/17 13:57:53;;;;;;;9.63;7.38;;;;;;;;;;5013768;28;20022;-74
2022/12/17 14:00:21;;;;;;;4.93;4.15;;;;;;;;;;5014139;28;20033;-73
2022/12/17 14:02:48;;;;;;;4.32;3.30;;;;;;;;;;5013501;28;20032;-74
2022/12/17 14:05:29;;;;;;;6.53;4.07;;;;;;;;;;5013203;28;20508;-74
2022/12/17 14:07:58;;;;;;;4.88;3.28;;;;;;;;;;5013210;28;20034;-73
2022/12/17 14:10:24;;;;;;;4.82;3.55;;;;;;;;;;5013938;28;20026;-73
2022/12/17 14:12:50;;;;;;;4.18;3.42;;;;;;;;;;5013633;28;20075;-74
2022/12/17 14:15:24;;;;;;;4.75;3.05;;;;;;;;;;5013493;28;20073;-74
2022/12/17 14:17:51;;;;;;;4.28;3.28;;;;;;;;;;5013519;28;20026;-74
2022/12/17 14:20:20;;;;;;;5.10;3.60;;;;;;;;;;5013583;28;20026;-74
2022/12/17 14:22:51;;;;;;;6.47;4.05;;;;;;;;;;5013102;28;20394;-74
2022/12/17 14:25:22;;;;;;;7.57;4.13;;;;;;;;;;5013673;28;20030;-74
2022/12/17 14:27:55;;;;;;;4.47;3.53;;;;;;;;;;5013319;28;20034;-74
2022/12/17 14:30:21;;;;;;;4.65;3.47;;;;;;;;;;5013543;28;20023;-74
2022/12/17 14:32:47;;;;;;;5.10;3.67;;;;;;;;;;5012127;28;20038;-74
2022/12/17 14:35:27;;;;;;;6.25;3.55;;;;;;;;;;5013282;28;20022;-73
2022/12/17 14:37:54;;;;;;;6.43;3.78;;;;;;;;;;5012615;28;20046;-73
2022/12/17 14:40:21;;;;;;;5.38;3.55;;;;;;;;;;5013244;28;20410;-74
2022/12/17 14:42:48;;;;;;;10.23;4.28;;;;;;;;;;5012963;28;20037;-74
2022/12/17 14:45:14;;;;;;;4.22;3.53;;;;;;;;;;5013046;28;20517;-73
2022/12/17 14:47:51;;;;;;;4.53;3.53;;;;;;;;;;5012895;28;20056;-74
2022/12/17 14:50:17;;;;;;;5.10;3.97;;;;;;;;;;5012685;28;20060;-73
2022/12/17 14:52:45;;;;;;;4.50;3.55;;;;;;;;;;5013016;28;20022;-73
2022/12/17 14:55:27;;;;;;;9.70;2.75;;;;;;;;;;5011577;28;20087;-73
2022/12/17 14:58:05;;;;;;;9.23;3.78;;;;;;;;;;5012784;28;20025;-73
2022/12/17 15:00:32;;;;;;;5.00;3.40;;;;;;;;;;5012844;28;20093;-73
2022/12/17 15:02:58;;;;;;;4.03;3.15;;;;;;;;;;5012922;28;20022;-73
2022/12/17 15:05:24;;;;;;;7.68;4.47;;;;;;;;;;5012379;28;20030;-74
2022/12/17 15:07:51;;;;;;;7.47;5.00;;;;;;;;;;5012703;28;20482;-73
2022/12/17 15:10:19;;;;;;;7.95;4.45;;;;;;;;;;5012700;28;20490;-73
2022/12/17 15:12:47;;;;;;;9.98;5.68;;;;;;;;;;5012899;28;20025;-73
2022/12/17 15:15:14;;;;;;;8.23;5.57;;;;;;;;;;5011023;28;20036;-73
2022/12/17 15:17:41;;;;;;;10.85;5.65;;;;;;;;;;5012532;28;20030;-73
2022/12/17 15:20:11;;;;;;;9.70;6.70;;;;;;;;;;5012171;28;20018;-74
2022/12/17 15:22:38;;;;;;;11.57;6.85;;;;;;;;;;5012303;28;20038;-73
2022/12/17 15:25:04;;;;;;;14.48;6.60;;;;;;;;;;5012650;28;20022;-73
2022/12/17 15:27:30;;;;;;;12.70;6.78;;;;;;;;;;5012336;28;20494;-73
2022/12/17 15:29:57;;;;;;;9.77;6.10;;;;;;;;;;5012243;28;20022;-74
2022/12/17 15:32:23;;;;;;;15.23;6.85;;;;;;;;;;5012348;28;20026;-73
2022/12/17 15:34:50;;;;;;;8.60;5.45;;;;;;;;;;5012002;28;20030;-73
2022/12/17 15:37:17;;;;;;;7.45;4.90;;;;;;;;;;5012005;28;20046;-74
2022/12/17 15:39:44;;;;;;;9.05;5.20;;;;;;;;;;5011310;28;20026;-73
2022/12/17 15:44:55;;;;;;;11.70;6.25;;;;;;;;;;5012377;28;20036;-74
2022/12/17 15:47:21;;;;;;;10.43;6.22;;;;;;;;;;5012202;28;20022;-73
2022/12/17 15:49:47;;;;;;;10.77;6.50;;;;;;;;;;5012094;28;20030;-73
2022/12/17 15:52:14;;;;;;;10.63;6.68;;;;;;;;;;5012480;28;20062;-73
2022/12/17 15:54:41;;;;;;;11.63;7.38;;;;;;;;;;5012367;28;20018;-73
2022/12/17 15:57:08;;;;;;;13.55;6.60;;;;;;;;;;5012177;28;20034;-73
2022/12/17 15:59:34;;;;;;;13.25;7.65;;;;;;;;;;5012246;28;20028;-73
2022/12/17 16:02:01;;;;;;;14.20;7.72;;;;;;;;;;5012283;28;20027;-73
2022/12/17 16:04:27;;;;;;;13.18;7.47;;;;;;;;;;5011978;28;20026;-74
2022/12/17 16:06:53;;;;;;;21.42;10.43;;;;;;;;;;5011996;28;20395;-73
2022/12/17 16:09:23;;;;;;;28.35;12.00;;;;;;;;;;5012069;28;20026;-73
2022/12/17 16:11:52;;;;;;;64.65;22.38;;;;;;;;;;5010902;28;20041;-73
2022/12/17 16:14:19;;;;;;;28.13;12.43;;;;;;;;;;5012137;28;20029;-73
2022/12/17 16:16:45;;;;;;;18.73;10.68;;;;;;;;;;5011969;28;20038;-73
2022/12/17 16:19:11;;;;;;;12.60;6.72;;;;;;;;;;5011692;28;20378;-73
2022/12/17 16:21:38;;;;;;;11.75;7.53;;;;;;;;;;5011975;28;20042;-73
2022/12/17 16:24:04;;;;;;;15.05;8.48;;;;;;;;;;5011823;28;20034;-73
2022/12/17 16:26:31;;;;;;;15.95;7.40;;;;;;;;;;5012402;28;20029;-73
2022/12/17 16:28:58;;;;;;;12.63;7.25;;;;;;;;;;5015823;28;20030;-73
2022/12/17 16:31:24;;;;;;;17.13;9.15;;;;;;;;;;5015367;28;20030;-73
2022/12/17 16:33:50;;;;;;;17.60;9.10;;;;;;;;;;5015174;28;20052;-73
2022/12/17 16:36:18;;;;;;;13.27;7.78;;;;;;;;;;5015361;28;20046;-73
2022/12/17 16:38:46;;;;;;;11.68;6.50;;;;;;;;;;5015174;28;20046;-73
2022/12/17 16:41:13;;;;;;;11.70;6.85;;;;;;;;;;5015442;28;20026;-73
2022/12/17 16:43:39;;;;;;;49.28;20.35;;;;;;;;;;5015628;28;20018;-73
2022/12/17 16:46:06;;;;;;;29.58;14.38;;;;;;;;;;5015416;28;20087;-73
2022/12/17 16:48:36;;;;;;;21.50;11.63;;;;;;;;;;5015196;28;20014;-73
2022/12/17 16:51:14;;;;;;;19.17;9.15;;;;;;;;;;5015436;28;20034;-74
2022/12/17 16:53:40;;;;;;;15.15;8.65;;;;;;;;;;5015342;28;20026;-73
2022/12/17 16:56:07;;;;;;;14.38;7.30;;;;;;;;;;5015076;28;20422;-73
2022/12/17 16:58:33;;;;;;;16.65;8.43;;;;;;;;;;5014883;28;20386;-73
2022/12/17 17:00:59;;;;;;;14.50;6.80;;;;;;;;;;5014778;28;20026;-73
2022/12/17 17:03:26;;;;;;;11.88;6.68;;;;;;;;;;5014926;28;20437;-73
2022/12/17 17:05:52;;;;;;;15.30;6.40;;;;;;;;;;5013629;28;20505;-73
2022/12/17 17:08:18;;;;;;;14.93;7.75;;;;;;;;;;5014934;28;20052;-73
2022/12/17 17:10:45;;;;;;;16.35;9.48;;;;;;;;;;5014833;28;20434;-73
2022/12/17 17:13:11;;;;;;;15.13;8.75;;;;;;;;;;5015013;28;20026;-73
2022/12/17 17:15:38;;;;;;;18.98;11.15;;;;;;;;;;5014372;28;20030;-73
2022/12/17 17:18:04;;;;;;;19.98;10.23;;;;;;;;;;5014547;28;20497;-73
2022/12/17 17:20:31;;;;;;;22.85;12.05;;;;;;;;;;5014676;28;20446;-73
2022/12/17 17:22:57;;;;;;;21.73;11.43;;;;;;;;;;5013503;28;20398;-74
2022/12/17 17:25:23;;;;;;;27.60;14.90;;;;;;;;;;5014769;28;20018;-73
2022/12/17 17:27:50;;;;;;;41.53;21.25;;;;;;;;;;5014643;28;20036;-73
2022/12/17 17:30:16;;;;;;;24.00;13.05;;;;;;;;;;5014008;28;20487;-73
2022/12/17 17:32:42;;;;;;;16.88;9.75;;;;;;;;;;5014274;28;20026;-73
2022/12/17 17:35:09;;;;;;;17.73;10.40;;;;;;;;;;5014200;28;20088;-73
2022/12/17 17:37:35;;;;;;;18.20;10.98;;;;;;;;;;5014330;28;20049;-73
2022/12/17 17:40:01;;;;;;;19.27;10.30;;;;;;;;;;5014128;28;20083;-74
2022/12/17 17:42:28;;;;;;;17.60;9.98;;;;;;;;;;5014481;28;20269;-73
2022/12/17 17:44:54;;;;;;;17.20;9.48;;;;;;;;;;5013874;28;20018;-73
2022/12/17 17:47:20;;;;;;;28.13;13.73;;;;;;;;;;5013808;28;20040;-73
2022/12/17 17:49:47;;;;;;;33.60;14.93;;;;;;;;;;5014079;28;20037;-73
2022/12/17 17:52:16;;;;;;;33.65;18.52;;;;;;;;;;5013992;28;20483;-73
2022/12/17 17:54:42;;;;;;;33.55;18.33;;;;;;;;;;5014177;28;20033;-73
2022/12/17 17:57:09;;;;;;;25.65;13.57;;;;;;;;;;5013847;28;20042;-73
2022/12/17 17:59:38;;;;;;;25.67;12.75;;;;;;;;;;5013490;28;20014;-73
2022/12/17 18:02:04;;;;;;;26.23;13.85;;;;;;;;;;5014193;28;20064;-73
2022/12/17 18:04:31;;;;;;;24.45;13.73;;;;;;;;;;5014031;28;20028;-73
2022/12/17 18:06:57;;;;;;;25.08;12.82;;;;;;;;;;5013954;28;20239;-73
2022/12/17 18:09:23;;;;;;;26.92;13.95;;;;;;;;;;5013708;28;20020;-73
2022/12/17 18:11:49;;;;;;;29.58;14.13;;;;;;;;;;5013553;28;20475;-72
2022/12/17 18:14:17;;;;;;;27.95;12.80;;;;;;;;;;5013431;28;20512;-73
2022/12/17 18:16:44;;;;;;;20.00;10.60;;;;;;;;;;5013519;28;20034;-73
2022/12/17 18:19:12;;;;;;;22.17;11.32;;;;;;;;;;5013632;28;20463;-74
2022/12/17 18:21:39;;;;;;;23.90;13.02;;;;;;;;;;5013804;28;20032;-73
2022/12/17 18:24:06;;;;;;;23.30;11.75;;;;;;;;;;5013356;28;20501;-73
2022/12/17 18:26:36;;;;;;;21.42;10.68;;;;;;;;;;5013385;28;20521;-73
2022/12/17 18:29:07;;;;;;;18.13;8.85;;;;;;;;;;5013072;28;20022;-73
2022/12/17 18:31:33;;;;;;;17.75;9.15;;;;;;;;;;5013381;28;20479;-73
2022/12/17 18:34:01;;;;;;;20.95;11.02;;;;;;;;;;5013517;28;20033;-73
2022/12/17 18:36:29;;;;;;;56.78;32.45;;;;;;;;;;5013331;28;20402;-73
2022/12/17 18:38:59;;;;;;;53.72;30.23;;;;;;;;;;5013069;28;20056;-73
2022/12/17 18:44:12;;;;;;;49.40;26.52;;;;;;;;;;5012918;28;20030;-73
2022/12/17 18:46:39;;;;;;;42.28;21.95;;;;;;;;;;5013000;28;20620;-72
2022/12/17 18:49:06;;;;;;;21.30;11.68;;;;;;;;;;5012730;28;20085;-73
2022/12/17 18:51:36;;;;;;;22.17;10.50;;;;;;;;;;5011325;28;20041;-73
2022/12/17 18:54:05;;;;;;;24.65;13.40;;;;;;;;;;5012816;28;20390;-73
2022/12/17 18:56:32;;;;;;;27.50;12.82;;;;;;;;;;5012873;28;20045;-73
2022/12/17 18:58:58;;;;;;;25.92;12.63;;;;;;;;;;5012485;28;20035;-73
2022/12/17 19:01:29;;;;;;;24.05;13.10;;;;;;;;;;5012892;28;20037;-73
2022/12/17 19:03:56;;;;;;;26.38;13.88;;;;;;;;;;5012671;28;20018;-73
2022/12/17 19:06:23;;;;;;;22.77;11.88;;;;;;;;;;5012729;28;20052;-73
2022/12/17 19:08:50;;;;;;;22.88;11.80;;;;;;;;;;5012589;28;20378;-73
2022/12/17 19:11:20;;;;;;;17.63;9.07;;;;;;;;;;5012416;28;20030;-72
2022/12/17 19:13:50;;;;;;;20.63;10.63;;;;;;;;;;5012833;28;20368;-73
2022/12/17 19:16:20;;;;;;;21.60;10.40;;;;;;;;;;5012425;28;20034;-73
2022/12/17 19:18:53;;;;;;;19.60;9.68;;;;;;;;;;5012420;28;20029;-72
2022/12/17 19:21:20;;;;;;;20.23;9.20;;;;;;;;;;5012444;28;20075;-72
2022/12/17 19:23:47;;;;;;;18.60;9.48;;;;;;;;;;5012471;28;20475;-73
2022/12/17 19:26:15;;;;;;;14.35;8.20;;;;;;;;;;5012393;28;20052;-72
2022/12/17 19:28:42;;;;;;;17.83;8.32;;;;;;;;;;5012246;28;20029;-73
2022/12/17 19:31:09;;;;;;;18.02;8.77;;;;;;;;;;5012374;28;20072;-73
2022/12/17 19:33:36;;;;;;;20.48;11.35;;;;;;;;;;5012506;28;20040;-73
2022/12/17 19:36:05;;;;;;;29.58;15.98;;;;;;;;;;5012210;28;20038;-73
2022/12/17 19:38:32;;;;;;;38.50;20.55;;;;;;;;;;5012272;28;20056;-73
2022/12/17 19:41:10;;;;;;;38.58;20.40;;;;;;;;;;5011685;28;20040;-73
2022/12/17 19:43:37;;;;;;;37.10;20.58;;;;;;;;;;5012270;28;20387;-73
2022/12/17 19:46:08;;;;;;;42.80;23.67;;;;;;;;;;5012359;28;20037;-73
2022/12/17 19:48:35;;;;;;;45.47;23.63;;;;;;;;;;5012304;28;20022;-72
2022/12/17 19:51:02;;;;;;;39.92;21.60;;;;;;;;;;5012474;28;20034;-73
2022/12/17 19:53:29;;;;;;;31.90;13.65;;;;;;;;;;5012195;28;20030;-73
2022/12/17 19:55:56;;;;;;;28.35;14.23;;;;;;;;;;5011722;28;20038;-73
2022/12/17 19:58:23;;;;;;;33.63;14.18;;;;;;;;;;5012343;28;20040;-74
2022/12/17 20:00:51;;;;;;;26.02;11.85;;;;;;;;;;5012089;28;20040;-73
2022/12/17 20:03:17;;;;;;;22.98;10.40;;;;;;;;;;5015355;28;20026;-73
2022/12/17 20:05:44;;;;;;;37.95;17.00;;;;;;;;;;5016354;28;20107;-73
2022/12/17 20:08:10;;;;;;;39.22;18.65;;;;;;;;;;5015906;28;20032;-73
2022/12/17 20:10:37;;;;;;;22.23;11.10;;;;;;;;;;5015496;28;20021;-73
2022/12/17 20:13:03;;;;;;;15.95;7.80;;;;;;;;;;5016012;28;20436;-72
2022/12/17 20:15:30;;;;;;;15.15;7.90;;;;;;;;;;5015793;28;20438;-73
2022/12/17 20:17:56;;;;;;;15.65;8.00;;;;;;;;;;5015729;28;20022;-73
2022/12/17 20:20:23;;;;;;;17.73;9.60;;;;;;;;;;5015758;28;20413;-73
2022/12/17 20:22:49;;;;;;;21.77;11.57;;;;;;;;;;5015613;28;20040;-73
2022/12/17 20:25:15;;;;;;;20.85;11.75;;;;;;;;;;5015323;28;20029;-73
2022/12/17 20:27:43;;;;;;;32.45;17.83;;;;;;;;;;5015518;28;20022;-73
2022/12/17 20:30:09;;;;;;;57.08;26.52;;;;;;;;;;5015739;28;20033;-73
2022/12/17 20:32:36;;;;;;;59.28;31.73;;;;;;;;;;5015478;28;20033;-73
2022/12/17 20:35:03;;;;;;;55.08;31.70;;;;;;;;;;5015565;28;20030;-73
2022/12/17 20:37:29;;;;;;;39.50;19.40;;;;;;;;;;5015227;28;20406;-73
2022/12/17 20:39:55;;;;;;;33.78;16.25;;;;;;;;;;5015088;28;20505;-73
2022/12/17 20:42:22;;;;;;;36.97;18.02;;;;;;;;;;5015276;28;20030;-73
2022/12/17 20:44:50;;;;;;;39.92;19.98;;;;;;;;;;5014021;28;20038;-73
2022/12/17 20:47:17;;;;;;;49.78;24.98;;;;;;;;;;5014985;28;20478;-73
2022/12/17 20:49:44;;;;;;;42.75;24.65;;;;;;;;;;5014836;28;20041;-73
2022/12/17 20:52:10;;;;;;;45.92;25.60;;;;;;;;;;5015013;28;20025;-73
2022/12/17 20:54:36;;;;;;;38.78;20.60;;;;;;;;;;5014658;28;20029;-73
2022/12/17 20:57:03;;;;;;;29.50;18.02;;;;;;;;;;5014967;28;20034;-73
2022/12/17 20:59:29;;;;;;;26.20;14.27;;;;;;;;;;5014930;28;20033;-73
2022/12/17 21:01:55;;;;;;;22.80;11.48;;;;;;;;;;5015063;28;20497;-73
2022/12/17 21:04:22;;;;;;;22.00;10.68;;;;;;;;;;5015123;28;20029;-73
2022/12/17 21:06:48;;;;;;;15.77;8.20;;;;;;;;;;5014578;28;20026;-73
2022/12/17 21:09:17;;;;;;;22.20;10.35;;;;;;;;;;5014490;28;20489;-73
2022/12/17 21:11:43;;;;;;;17.83;8.93;;;;;;;;;;5014729;28;20059;-73
2022/12/17 21:14:11;;;;;;;20.27;11.02;;;;;;;;;;5014210;28;20030;-73
2022/12/17 21:16:38;;;;;;;38.28;20.67;;;;;;;;;;5013347;28;20048;-73
2022/12/17 21:19:06;;;;;;;32.63;17.55;;;;;;;;;;5014916;28;20025;-73
2022/12/17 21:21:34;;;;;;;22.92;12.88;;;;;;;;;;5014685;28;20030;-73
2022/12/17 21:24:01;;;;;;;26.17;15.05;;;;;;;;;;5014276;28;20036;-73
2022/12/17 21:26:28;;;;;;;34.88;18.38;;;;;;;;;;5014486;28;20056;-73
2022/12/17 21:28:55;;;;;;;32.17;19.50;;;;;;;;;;5014715;28;20032;-72
2022/12/17 21:31:26;;;;;;;29.35;16.85;;;;;;;;;;5014385;28;20018;-73
2022/12/17 21:33:54;;;;;;;25.50;14.90;;;;;;;;;;5014512;28;20033;-73
2022/12/17 21:36:21;;;;;;;22.52;13.63;;;;;;;;;;5013755;28;20029;-73
2022/12/17 21:38:47;;;;;;;15.90;8.77;;;;;;;;;;5014248;28;20050;-73
2022/12/17 21:41:15;;;;;;;17.85;9.25;;;;;;;;;;5014172;28;20372;-73
2022/12/17 21:43:41;;;;;;;28.58;13.45;;;;;;;;;;5014430;28;20014;-73
2022/12/17 21:46:08;;;;;;;22.73;11.65;;;;;;;;;;5014447;28;20034;-73
2022/12/17 21:48:36;;;;;;;28.67;14.23;;;;;;;;;;5014153;28;20022;-73
2022/12/17 21:51:03;;;;;;;36.10;18.08;;;;;;;;;;5013912;28;20033;-73
2022/12/17 21:53:30;;;;;;;41.72;18.48;;;;;;;;;;5013889;28;20478;-72
2022/12/17 21:56:07;;;;;;;74.38;30.38;;;;;;;;;;5014150;28;20044;-73
2022/12/17 21:58:33;;;;;;;63.88;26.67;;;;;;;;;;5013853;28;20436;-73
2022/12/17 22:01:13;;;;;;;56.55;22.77;;;;;;;;;;5013963;28;20498;-73
2022/12/17 22:03:39;;;;;;;60.72;23.13;;;;;;;;;;5014050;28;20036;-73
2022/12/17 22:06:07;;;;;;;42.33;19.88;;;;;;;;;;5013416;28;20029;-73
2022/12/17 22:08:33;;;;;;;39.45;17.20;;;;;;;;;;5013920;28;20021;-73
2022/12/17 22:11:03;;;;;;;25.40;11.40;;;;;;;;;;5013835;28;20556;-73
2022/12/17 22:16:14;;;;;;;10.40;5.93;;;;;;;;;;5013664;28;20071;-73
2022/12/17 22:18:40;;;;;;;13.77;7.50;;;;;;;;;;5013664;28;20487;-73
2022/12/17 22:21:07;;;;;;;24.38;11.73;;;;;;;;;;5013167;28;20026;-73
2022/12/17 22:23:33;;;;;;;56.67;23.38;;;;;;;;;;5013461;28;20032;-73
2022/12/17 22:25:59;;;;;;;26.05;12.35;;;;;;;;;;5013119;28;20034;-73
2022/12/17 22:28:26;;;;;;;15.30;8.18;;;;;;;;;;5013493;28;20486;-73
2022/12/17 22:33:37;;;;;;;21.17;9.30;;;;;;;;;;5013778;28;20029;-72
2022/12/17 22:36:03;;;;;;;20.95;10.02;;;;;;;;;;5012779;28;20486;-73
2022/12/17 22:38:30;;;;;;;17.35;8.10;;;;;;;;;;5013154;28;20052;-73
2022/12/17 22:41:05;;;;;;;12.70;6.68;;;;;;;;;;5013140;28;20515;-72
2022/12/17 22:43:31;;;;;;;12.23;6.43;;;;;;;;;;5013181;28;20024;-73
2022/12/17 22:46:01;;;;;;;13.63;7.28;;;;;;;;;;5012988;28;20026;-73
2022/12/17 22:48:28;;;;;;;21.47;10.20;;;;;;;;;;5012930;28;20556;-72
2022/12/17 22:50:55;;;;;;;26.90;10.75;;;;;;;;;;5012791;28;20036;-73
2022/12/17 22:53:22;;;;;;;23.13;10.07;;;;;;;;;;5013061;28;20402;-72
2022/12/17 22:55:49;;;;;;;15.95;7.85;;;;;;;;;;5012964;28;20044;-73
2022/12/17 22:58:16;;;;;;;14.75;7.63;;;;;;;;;;5012920;28;20033;-72
2022/12/17 23:00:42;;;;;;;14.85;6.55;;;;;;;;;;5012835;28;20010;-73
2022/12/17 23:03:09;;;;;;;15.70;6.75;;;;;;;;;;5012763;28;20029;-73
2022/12/17 23:05:35;;;;;;;15.45;8.10;;;;;;;;;;5012408;28;20033;-73
2022/12/17 23:08:02;;;;;;;18.42;7.93;;;;;;;;;;5012835;28;20022;-73
2022/12/17 23:10:28;;;;;;;18.70;8.80;;;;;;;;;;5012747;28;20029;-73
2022/12/17 23:12:54;;;;;;;22.05;10.40;;;;;;;;;;5012792;28;20030;-72
2022/12/17 23:15:24;;;;;;;27.58;11.60;;;;;;;;;;5012516;28;20022;-73
2022/12/17 23:17:51;;;;;;;26.60;11.82;;;;;;;;;;5012403;28;20030;-73
2022/12/17 23:20:18;;;;;;;29.73;13.57;;;;;;;;;;5012722;28;20030;-73
2022/12/17 23:22:45;;;;;;;19.25;9.30;;;;;;;;;;5012552;28;20022;-73
2022/12/17 23:25:11;;;;;;;18.95;9.40;;;;;;;;;;5012393;28;20487;-73
2022/12/17 23:27:38;;;;;;;19.75;8.85;;;;;;;;;;5012486;28;20033;-73
2022/12/17 23:30:05;;;;;;;17.88;8.75;;;;;;;;;;5012295;28;20483;-73
2022/12/17 23:32:32;;;;;;;18.00;8.73;;;;;;;;;;5012124;28;20052;-73
2022/12/17 23:34:58;;;;;;;16.80;7.57;;;;;;;;;;5012755;28;20026;-73
2022/12/17 23:37:24;;;;;;;18.77;8.63;;;;;;;;;;5011886;28;20515;-73
2022/12/17 23:39:51;;;;;;;15.68;7.70;;;;;;;;;;5012382;28;20036;-73
2022/12/17 23:42:17;;;;;;;11.93;6.80;;;;;;;;;;5012420;28;20044;-73
2022/12/17 23:44:43;;;;;;;11.73;6.40;;;;;;;;;;4994849;28;20017;-73
2022/12/17 23:47:10;;;;;;;17.58;7.57;;;;;;;;;;5011716;28;20041;-73
2022/12/17 23:49:36;;;;;;;14.85;6.70;;;;;;;;;;5012526;28;20032;-73
2022/12/17 23:52:02;;;;;;;17.77;9.20;;;;;;;;;;5012199;28;20026;-73
2022/12/17 23:54:29;;;;;;;14.13;7.10;;;;;;;;;;5012237;28;20032;-73
2022/12/17 23:56:55;;;;;;;14.43;6.78;;;;;;;;;;5012313;28;20030;-73
2022/12/17 23:59:21;;;;;;;17.00;8.38;;;;;;;;;;5012259;28;20029;-73
